Govans, Maryland
Current Conditions -  °F | °C
As of 12:45 PM on Monday 24 Nov 2014 (Local Time) from KMTN Reporting Station
Broken Clouds Broken Clouds  
Wind Chill: 20°   Ceiling: 4100
Heat Index: 20°   Visibility: 10mi
Dew Point: 15°   Wind: 10mph
Humidity: 73%   Direction: 190°S
Pressure: 29.65"   Gusts: 18mph
Location:  39.3674°N, 76.6149°W
Report Text: KMTN 241745Z 19009G16KT 10SM BKM034 BKN041 20/15 A2965
Loading
Personal Weather Stations






























Interactive Weather Map New forecast layout! Learn more

10-Day Weather Forecast

Advertisements
Track Severe Weather on mobile